Monroe Bridge, Massachusetts
Current Conditions -  °F | °C
As of 5:03 AM on Saturday 25 Oct 2014 (Local Time) from KAQW Reporting Station
Haze Haze  
Wind Chill: 37°   Ceiling: 1900
Heat Index: 37°   Visibility: 1.5mi
Dew Point: 37°   Wind: 0mph
Humidity: 100%   Direction: NA
Pressure: 29.83"   Gusts: NA
Location:  42.72°N, 72.94°W
Report Text: KAQW 250903Z AUTO 00000KT 1 1/2SM BR FEW001 OVC019 03/03 A2983 RMK AO2 T00280028
Loading
Personal Weather Stations






























Interactive Weather Map
Tropical Storm Tracking
New forecast layout! Learn more

10-Day Weather Forecast

Advertisements
Track Severe Weather on mobile